createdAt,value
2022-09-21T00:00:00.121Z,11.20
2022-09-21T00:02:02.956Z,11.20
2022-09-21T00:04:08.864Z,11.20
2022-09-21T00:06:14.765Z,11.20
2022-09-21T00:08:17.537Z,11.20
2022-09-21T00:10:20.996Z,11.30
2022-09-21T00:12:23.695Z,11.30
2022-09-21T00:14:26.355Z,11.30
2022-09-21T00:16:29.896Z,11.30
2022-09-21T00:18:32.919Z,11.40
2022-09-21T00:20:35.580Z,11.40
2022-09-21T00:22:39.640Z,11.40
2022-09-21T00:24:42.297Z,11.40
2022-09-21T00:26:44.981Z,11.40
2022-09-21T00:28:49.346Z,11.40
2022-09-21T00:30:51.992Z,11.40
2022-09-21T00:32:55.700Z,11.40
2022-09-21T00:35:00.009Z,11.40
2022-09-21T00:37:02.726Z,11.30
2022-09-21T00:39:06.755Z,11.30
2022-09-21T00:41:10.960Z,11.30
2022-09-21T00:43:15.332Z,11.30
2022-09-21T00:45:21.875Z,11.30
2022-09-21T00:47:29.651Z,11.30
2022-09-21T00:49:34.633Z,11.30
2022-09-21T00:51:37.851Z,11.30
2022-09-21T00:53:40.622Z,11.30
2022-09-21T00:55:49.947Z,11.20
2022-09-21T00:57:56.832Z,11.20
2022-09-21T01:00:03.674Z,11.10
2022-09-21T01:02:07.072Z,11.10
2022-09-21T01:04:11.731Z,11.10
2022-09-21T01:06:15.736Z,11.10
2022-09-21T01:08:20.879Z,11.10
2022-09-21T01:10:25.096Z,11.10
2022-09-21T01:12:48.252Z,11.10
2022-09-21T01:15:20.315Z,11.00
2022-09-21T01:17:36.274Z,10.90
2022-09-21T01:20:01.077Z,10.90
2022-09-21T01:22:12.024Z,10.80
2022-09-21T01:24:40.160Z,10.80
2022-09-21T01:27:13.354Z,10.80
2022-09-21T01:29:23.443Z,10.80
2022-09-21T01:31:32.409Z,10.80
2022-09-21T01:33:39.907Z,10.80
2022-09-21T01:35:47.813Z,10.70
2022-09-21T01:37:54.218Z,10.70
2022-09-21T01:40:01.985Z,10.70
2022-09-21T01:42:08.455Z,10.70
2022-09-21T01:44:16.152Z,10.60
2022-09-21T01:46:23.152Z,10.70
2022-09-21T01:48:26.912Z,10.60
2022-09-21T01:50:35.391Z,10.60
2022-09-21T01:52:43.094Z,10.60
2022-09-21T01:54:50.129Z,10.60
2022-09-21T01:57:01.074Z,10.60
2022-09-21T01:59:10.339Z,10.60
2022-09-21T02:01:18.086Z,10.60
2022-09-21T02:03:27.582Z,10.60
2022-09-21T02:05:31.399Z,10.60
2022-09-21T02:07:35.067Z,10.60
2022-09-21T02:09:38.549Z,10.60
2022-09-21T02:11:43.852Z,10.60
2022-09-21T02:13:49.650Z,10.50
2022-09-21T02:16:05.972Z,10.50
2022-09-21T02:18:18.567Z,10.50
2022-09-21T02:20:27.818Z,10.50
2022-09-21T02:22:37.970Z,10.50
2022-09-21T02:24:44.418Z,10.50
2022-09-21T02:26:54.559Z,10.50
2022-09-21T02:29:06.615Z,10.60
2022-09-21T02:31:17.920Z,10.60
2022-09-21T02:33:27.436Z,10.50
2022-09-21T02:35:36.432Z,10.40
2022-09-21T02:37:45.920Z,10.40
2022-09-21T02:39:56.163Z,10.40
2022-09-21T02:42:05.322Z,10.40
2022-09-21T02:44:12.963Z,10.40
2022-09-21T02:46:19.122Z,10.30
2022-09-21T02:48:25.292Z,10.40
2022-09-21T02:50:34.852Z,10.40
2022-09-21T02:52:40.702Z,10.40
2022-09-21T02:54:47.858Z,10.40
2022-09-21T02:56:51.527Z,10.40
2022-09-21T02:58:59.356Z,10.40
2022-09-21T03:01:04.310Z,10.40
2022-09-21T03:03:17.170Z,10.30
2022-09-21T03:05:19.890Z,10.30
2022-09-21T03:07:22.886Z,10.30
2022-09-21T03:09:26.902Z,10.30
2022-09-21T03:11:29.582Z,10.30
2022-09-21T03:13:32.619Z,10.30
2022-09-21T03:15:35.585Z,10.20
2022-09-21T03:17:38.281Z,10.20
2022-09-21T03:19:41.016Z,10.20
2022-09-21T03:21:44.796Z,10.20
2022-09-21T03:23:47.678Z,10.20
2022-09-21T03:25:53.186Z,10.20
2022-09-21T03:27:56.332Z,10.20
2022-09-21T03:30:02.212Z,10.20
2022-09-21T03:32:05.986Z,10.20
2022-09-21T03:34:08.762Z,10.20
2022-09-21T03:36:11.538Z,10.20
2022-09-21T03:38:14.286Z,10.30
2022-09-21T03:40:18.028Z,10.20
2022-09-21T03:42:22.150Z,10.20
2022-09-21T03:44:25.798Z,10.30
2022-09-21T03:46:28.548Z,10.30
2022-09-21T03:48:32.573Z,10.30
2022-09-21T03:50:35.302Z,10.30
2022-09-21T03:52:39.208Z,10.30
2022-09-21T03:54:41.886Z,10.30
2022-09-21T03:56:44.885Z,10.30
2022-09-21T03:58:48.986Z,10.20
2022-09-21T04:00:52.746Z,10.20
2022-09-21T04:02:56.162Z,10.20
2022-09-21T04:04:58.923Z,10.30
2022-09-21T04:07:01.813Z,10.30
2022-09-21T04:09:04.780Z,10.40
2022-09-21T04:11:11.840Z,10.40
2022-09-21T04:13:17.867Z,10.40
2022-09-21T04:15:21.868Z,10.50
2022-09-21T04:17:24.716Z,10.50
2022-09-21T04:19:27.388Z,10.50
2022-09-21T04:21:30.910Z,10.60
2022-09-21T04:23:33.674Z,10.60
2022-09-21T04:25:36.700Z,10.60
2022-09-21T04:27:39.964Z,10.60
2022-09-21T04:29:42.768Z,10.60
2022-09-21T04:31:46.761Z,10.70
2022-09-21T04:33:50.604Z,10.70
2022-09-21T04:35:56.504Z,10.70
2022-09-21T04:37:59.634Z,10.70
2022-09-21T04:40:02.871Z,10.70
2022-09-21T04:42:06.012Z,10.80
2022-09-21T04:44:08.826Z,10.90
2022-09-21T04:46:13.295Z,10.90
2022-09-21T04:48:17.989Z,11.00
2022-09-21T04:50:20.748Z,11.00
2022-09-21T04:52:23.444Z,11.00
2022-09-21T04:54:26.134Z,11.00
2022-09-21T04:56:28.785Z,11.00
2022-09-21T04:58:31.929Z,11.00
2022-09-21T05:00:34.644Z,11.00
2022-09-21T05:02:37.348Z,11.10
2022-09-21T05:04:41.376Z,11.10
2022-09-21T05:06:44.062Z,11.10
2022-09-21T05:09:04.213Z,11.10
2022-09-21T05:11:07.326Z,11.10
2022-09-21T05:13:10.058Z,11.10
2022-09-21T05:15:13.129Z,11.10
2022-09-21T05:17:15.993Z,11.10
2022-09-21T05:19:18.801Z,11.10
2022-09-21T05:21:22.987Z,11.10
2022-09-21T05:23:26.437Z,11.10
2022-09-21T05:25:29.174Z,11.20
2022-09-21T05:27:31.903Z,11.20
2022-09-21T05:29:35.229Z,11.20
2022-09-21T05:31:43.354Z,11.20
2022-09-21T05:33:52.539Z,11.30
2022-09-21T05:36:03.670Z,11.30
2022-09-21T05:38:12.673Z,11.40
2022-09-21T05:40:16.086Z,11.30
2022-09-21T05:42:20.952Z,11.30
2022-09-21T05:44:28.257Z,11.40
2022-09-21T05:46:43.925Z,11.40
2022-09-21T05:49:09.864Z,11.40
2022-09-21T05:51:38.345Z,11.40
2022-09-21T05:53:58.450Z,11.40
2022-09-21T05:56:05.036Z,11.50
2022-09-21T05:58:18.564Z,11.40
2022-09-21T06:00:23.729Z,11.40
2022-09-21T06:02:43.091Z,11.40
2022-09-21T06:04:47.458Z,11.50
2022-09-21T06:06:50.194Z,11.50
2022-09-21T06:08:54.232Z,11.70
2022-09-21T06:10:57.314Z,11.70
2022-09-21T06:13:00.175Z,11.80
2022-09-21T06:15:02.862Z,11.80
2022-09-21T06:17:05.850Z,11.90
2022-09-21T06:19:12.418Z,11.90
2022-09-21T06:21:15.179Z,11.90
2022-09-21T06:23:17.858Z,12.00
2022-09-21T06:25:22.020Z,12.00
2022-09-21T06:27:24.795Z,12.00
2022-09-21T06:29:31.202Z,12.00
2022-09-21T06:31:34.872Z,12.00
2022-09-21T06:33:39.659Z,12.00
2022-09-21T06:35:42.444Z,12.10
2022-09-21T06:37:46.383Z,12.20
2022-09-21T06:39:49.053Z,12.30
2022-09-21T06:41:54.003Z,12.30
2022-09-21T06:43:57.771Z,12.30
2022-09-21T06:46:02.189Z,12.40
2022-09-21T06:48:05.046Z,12.40
2022-09-21T06:50:08.733Z,12.50
2022-09-21T06:52:11.430Z,12.50
2022-09-21T06:54:14.165Z,12.50
2022-09-21T06:56:16.900Z,12.50
2022-09-21T06:58:21.004Z,12.60
2022-09-21T07:00:23.687Z,12.70
2022-09-21T07:02:26.432Z,12.80
2022-09-21T07:04:29.415Z,12.80
2022-09-21T07:06:32.404Z,12.80
2022-09-21T07:10:59.307Z,12.90
2022-09-21T07:13:04.382Z,13.00
2022-09-21T07:15:10.273Z,13.10
2022-09-21T07:17:15.453Z,13.10
2022-09-21T07:19:19.142Z,13.20
2022-09-21T07:21:22.805Z,13.20
2022-09-21T07:23:25.502Z,13.10
2022-09-21T07:25:29.036Z,13.20
2022-09-21T07:27:32.912Z,13.20
2022-09-21T07:29:35.592Z,13.30
2022-09-21T07:31:39.736Z,13.30
2022-09-21T07:33:42.693Z,13.30
2022-09-21T07:35:52.206Z,13.40
2022-09-21T07:37:56.895Z,13.50
2022-09-21T07:39:59.760Z,13.50
2022-09-21T07:42:02.581Z,13.40
2022-09-21T07:44:05.468Z,13.30
2022-09-21T07:46:08.682Z,13.30
2022-09-21T07:48:13.269Z,13.40
2022-09-21T07:50:16.089Z,13.50
2022-09-21T07:52:19.335Z,13.50
2022-09-21T07:54:22.025Z,13.50
2022-09-21T07:56:25.167Z,13.50
2022-09-21T07:58:45.520Z,13.50
2022-09-21T08:00:48.295Z,13.50
2022-09-21T08:02:51.317Z,13.60
2022-09-21T08:04:55.475Z,13.60
2022-09-21T08:06:58.170Z,13.60
2022-09-21T08:09:01.009Z,13.60
2022-09-21T08:11:04.962Z,13.50
2022-09-21T08:13:07.689Z,13.50
2022-09-21T08:15:30.545Z,13.60
2022-09-21T08:17:34.078Z,13.60
2022-09-21T08:19:36.981Z,13.70
2022-09-21T08:21:41.048Z,13.60
2022-09-21T08:23:43.772Z,13.60
2022-09-21T08:25:46.429Z,13.80
2022-09-21T08:27:49.203Z,13.90
2022-09-21T08:29:51.923Z,13.90
2022-09-21T08:31:54.709Z,13.90
2022-09-21T08:33:58.136Z,13.90
2022-09-21T08:36:02.426Z,13.90
2022-09-21T08:38:06.464Z,14.10
2022-09-21T08:40:11.121Z,14.20
2022-09-21T08:42:32.849Z,14.20
2022-09-21T08:44:41.773Z,14.20
2022-09-21T08:46:47.459Z,14.20
2022-09-21T08:48:55.289Z,14.30
2022-09-21T08:51:02.642Z,14.30
2022-09-21T08:53:12.441Z,14.30
2022-09-21T08:55:19.778Z,14.50
2022-09-21T08:57:24.107Z,14.70
2022-09-21T08:59:27.000Z,14.90
2022-09-21T09:01:46.912Z,15.00
2022-09-21T09:04:05.992Z,15.20
2022-09-21T09:06:15.049Z,15.30
2022-09-21T09:08:49.717Z,15.20
2022-09-21T09:11:02.813Z,15.10
2022-09-21T09:13:21.880Z,15.10
2022-09-21T09:15:48.717Z,15.10
2022-09-21T09:17:58.214Z,15.10
2022-09-21T09:20:06.517Z,15.20
2022-09-21T09:22:17.811Z,15.40
2022-09-21T09:24:32.844Z,15.60
2022-09-21T09:26:42.721Z,15.60
2022-09-21T09:28:53.077Z,15.80
2022-09-21T09:31:00.855Z,15.80
2022-09-21T09:33:12.808Z,15.70
2022-09-21T09:35:25.503Z,15.70
2022-09-21T09:37:34.758Z,15.70
2022-09-21T09:39:39.673Z,15.80
2022-09-21T09:42:15.062Z,16.00
2022-09-21T09:44:31.733Z,16.00
2022-09-21T09:46:39.953Z,16.20
2022-09-21T09:49:02.044Z,16.30
2022-09-21T09:51:04.922Z,16.20
2022-09-21T09:53:12.686Z,16.30
2022-09-21T09:55:21.394Z,16.50
2022-09-21T09:57:31.754Z,16.60
2022-09-21T09:59:40.849Z,16.70
2022-09-21T10:01:46.482Z,16.80
2022-09-21T10:04:06.932Z,16.90
2022-09-21T10:06:31.324Z,17.00
2022-09-21T10:08:46.430Z,17.10
2022-09-21T10:10:53.193Z,17.20
2022-09-21T10:12:58.572Z,17.30
2022-09-21T10:15:01.687Z,17.30
2022-09-21T10:17:09.344Z,17.30
2022-09-21T10:19:18.653Z,17.20
2022-09-21T10:21:24.395Z,17.20
2022-09-21T10:23:29.454Z,17.20
2022-09-21T10:25:34.807Z,17.20
2022-09-21T10:27:46.471Z,17.30
2022-09-21T10:29:50.426Z,17.50
2022-09-21T10:31:56.822Z,17.60
2022-09-21T10:34:13.596Z,17.50
2022-09-21T10:36:31.817Z,17.50
2022-09-21T10:38:36.235Z,17.60
2022-09-21T10:40:40.494Z,17.60
2022-09-21T10:42:45.137Z,17.70
2022-09-21T10:44:49.756Z,17.70
2022-09-21T10:46:53.370Z,17.70
2022-09-21T10:48:56.339Z,17.60
2022-09-21T10:50:59.241Z,17.70
2022-09-21T10:53:11.951Z,17.60
2022-09-21T10:55:19.069Z,17.60
2022-09-21T10:57:24.172Z,17.50
2022-09-21T10:59:30.314Z,17.50
2022-09-21T11:01:33.544Z,17.30
2022-09-21T11:03:49.029Z,17.30
2022-09-21T11:05:55.428Z,17.20
2022-09-21T11:08:12.826Z,17.30
2022-09-21T11:10:22.458Z,17.40
2022-09-21T11:12:35.690Z,17.30
2022-09-21T11:14:48.767Z,17.40
2022-09-21T11:16:57.828Z,17.50
2022-09-21T11:19:08.909Z,17.60
2022-09-21T11:21:20.050Z,17.70
2022-09-21T11:23:35.802Z,17.80
2022-09-21T11:25:48.624Z,17.70
2022-09-21T11:28:01.142Z,17.60
2022-09-21T11:30:13.363Z,17.60
2022-09-21T11:32:40.320Z,17.60
2022-09-21T11:35:09.877Z,17.50
2022-09-21T11:37:22.500Z,17.50
2022-09-21T11:39:37.371Z,17.50
2022-09-21T11:42:00.469Z,17.70
2022-09-21T11:44:22.400Z,17.80
2022-09-21T11:46:35.189Z,17.90
2022-09-21T11:48:51.153Z,18.00
2022-09-21T11:51:07.551Z,17.90
2022-09-21T11:53:26.361Z,17.90
2022-09-21T11:55:53.170Z,17.90
2022-09-21T11:58:03.622Z,18.00
2022-09-21T12:00:15.652Z,17.90
2022-09-21T12:02:34.082Z,17.90
2022-09-21T12:04:45.355Z,18.10
2022-09-21T12:06:58.102Z,18.00
2022-09-21T12:09:19.562Z,18.00
2022-09-21T12:11:36.767Z,18.10
2022-09-21T12:13:49.242Z,18.10
2022-09-21T12:15:59.785Z,18.20
2022-09-21T12:18:09.920Z,18.30
2022-09-21T12:20:20.380Z,18.30
2022-09-21T12:22:29.438Z,18.30
2022-09-21T12:24:35.887Z,18.30
2022-09-21T12:26:42.801Z,18.30
2022-09-21T12:28:48.876Z,18.40
2022-09-21T12:31:00.447Z,18.40
2022-09-21T12:33:07.678Z,18.40
2022-09-21T12:35:17.249Z,18.40
2022-09-21T12:37:24.694Z,18.50
2022-09-21T12:39:30.815Z,18.70
2022-09-21T12:41:40.771Z,18.80
2022-09-21T12:43:48.677Z,18.90
2022-09-21T12:45:55.984Z,18.90
2022-09-21T12:48:05.060Z,18.90
2022-09-21T12:50:19.325Z,18.80
2022-09-21T12:52:25.301Z,18.60
2022-09-21T12:54:37.894Z,18.50
2022-09-21T12:56:46.258Z,18.70
2022-09-21T12:58:58.468Z,18.80
2022-09-21T13:01:09.119Z,19.00
2022-09-21T13:03:18.138Z,19.00
2022-09-21T13:05:32.773Z,19.10
2022-09-21T13:07:57.822Z,19.10
2022-09-21T13:10:02.939Z,19.10
2022-09-21T13:12:10.624Z,19.10
2022-09-21T13:14:14.249Z,18.90
2022-09-21T13:16:26.121Z,18.80
2022-09-21T13:18:35.799Z,18.80
2022-09-21T13:20:41.815Z,18.70
2022-09-21T13:22:45.870Z,18.60
2022-09-21T13:25:01.344Z,18.60
2022-09-21T13:27:09.282Z,18.50
2022-09-21T13:29:40.470Z,18.50
2022-09-21T13:31:57.440Z,18.50
2022-09-21T13:34:24.054Z,18.50
2022-09-21T13:36:38.683Z,18.60
2022-09-21T13:39:17.349Z,18.80
2022-09-21T13:41:45.419Z,18.90
2022-09-21T13:44:04.376Z,19.00
2022-09-21T13:46:08.471Z,19.10
2022-09-21T13:48:19.760Z,19.20
2022-09-21T13:50:25.988Z,19.30
2022-09-21T13:52:39.383Z,19.40
2022-09-21T13:54:50.896Z,19.50
2022-09-21T13:57:16.390Z,19.60
2022-09-21T13:59:25.143Z,19.70
2022-09-21T14:01:49.214Z,19.80
2022-09-21T14:03:54.953Z,19.80
2022-09-21T14:06:07.241Z,19.80
2022-09-21T14:08:23.867Z,19.90
2022-09-21T14:10:29.296Z,19.90
2022-09-21T14:12:38.836Z,19.90
2022-09-21T14:14:42.288Z,19.90
2022-09-21T14:16:53.253Z,19.80
2022-09-21T14:18:56.596Z,19.60
2022-09-21T14:21:19.901Z,19.60
2022-09-21T14:23:31.021Z,19.40
2022-09-21T14:25:52.157Z,19.30
2022-09-21T14:28:01.548Z,19.10
2022-09-21T14:30:08.367Z,19.10
2022-09-21T14:32:17.383Z,19.20
2022-09-21T14:34:24.748Z,19.20
2022-09-21T14:36:34.512Z,19.30
2022-09-21T14:38:51.147Z,19.20
2022-09-21T14:41:00.179Z,19.20
2022-09-21T14:43:08.022Z,19.20
2022-09-21T14:45:18.093Z,19.20
2022-09-21T14:47:41.990Z,19.20
2022-09-21T14:50:15.515Z,19.40
2022-09-21T14:52:32.149Z,19.30
2022-09-21T14:54:49.706Z,19.20
2022-09-21T14:57:24.374Z,19.30
2022-09-21T14:59:43.077Z,19.30
2022-09-21T15:01:59.629Z,19.30
2022-09-21T15:04:24.248Z,19.20
2022-09-21T15:06:49.824Z,19.10
2022-09-21T15:09:19.379Z,19.00
2022-09-21T15:11:27.860Z,18.90
2022-09-21T15:13:58.337Z,18.90
2022-09-21T15:16:17.853Z,19.00
2022-09-21T15:18:23.571Z,19.10
2022-09-21T15:20:28.350Z,19.00
2022-09-21T15:22:31.903Z,19.00
2022-09-21T15:24:35.406Z,19.00
2022-09-21T15:26:40.814Z,19.00
2022-09-21T15:29:08.282Z,19.00
2022-09-21T15:31:20.121Z,19.00
2022-09-21T15:33:24.407Z,19.00
2022-09-21T15:35:28.949Z,19.00
2022-09-21T15:37:36.354Z,18.90
2022-09-21T15:39:41.194Z,18.90
2022-09-21T15:41:48.002Z,18.80
2022-09-21T15:43:57.927Z,18.80
2022-09-21T15:46:03.522Z,18.80
2022-09-21T15:48:13.140Z,18.70
2022-09-21T15:50:20.157Z,18.70
2022-09-21T15:52:28.931Z,18.80
2022-09-21T15:54:35.464Z,18.70
2022-09-21T15:56:40.540Z,18.80
2022-09-21T15:58:47.636Z,18.80
2022-09-21T16:00:55.602Z,18.90
2022-09-21T16:03:17.460Z,18.90
2022-09-21T16:05:23.485Z,18.80
2022-09-21T16:07:30.727Z,18.70
2022-09-21T16:09:41.044Z,18.70
2022-09-21T16:11:43.807Z,18.70
2022-09-21T16:14:06.875Z,18.70
2022-09-21T16:16:11.980Z,18.70
2022-09-21T16:18:35.261Z,18.60
2022-09-21T16:20:44.513Z,18.60
2022-09-21T16:22:48.802Z,18.60
2022-09-21T16:24:55.343Z,18.50
2022-09-21T16:26:59.906Z,18.40
2022-09-21T16:29:23.502Z,18.40
2022-09-21T16:31:37.321Z,18.50
2022-09-21T16:33:43.910Z,18.50
2022-09-21T16:35:46.742Z,18.50
2022-09-21T16:37:50.045Z,18.40
2022-09-21T16:39:53.973Z,18.30
2022-09-21T16:41:59.957Z,18.20
2022-09-21T16:44:03.557Z,18.10
2022-09-21T16:46:08.598Z,18.10
2022-09-21T16:48:13.765Z,18.10
2022-09-21T16:50:20.281Z,18.10
2022-09-21T16:52:23.232Z,18.20
2022-09-21T16:54:27.215Z,18.20
2022-09-21T16:56:31.231Z,18.20
2022-09-21T16:58:33.918Z,18.10
2022-09-21T17:00:42.205Z,18.10
2022-09-21T17:02:46.422Z,18.20
2022-09-21T17:04:49.148Z,18.20
2022-09-21T17:06:52.761Z,18.10
2022-09-21T17:08:55.557Z,18.10
2022-09-21T17:10:59.810Z,18.00
2022-09-21T17:13:04.406Z,17.80
2022-09-21T17:15:09.939Z,17.60
2022-09-21T17:17:14.806Z,17.60
2022-09-21T17:19:20.378Z,17.40
2022-09-21T17:21:24.644Z,17.30
2022-09-21T17:23:29.250Z,17.10
2022-09-21T17:25:32.831Z,17.00
2022-09-21T17:27:35.585Z,16.90
2022-09-21T17:29:40.163Z,16.80
2022-09-21T17:31:42.908Z,16.70
2022-09-21T17:33:47.726Z,16.70
2022-09-21T17:35:55.082Z,16.70
2022-09-21T17:37:57.831Z,16.70
2022-09-21T17:40:00.900Z,16.60
2022-09-21T17:42:07.364Z,16.50
2022-09-21T17:44:16.413Z,16.50
2022-09-21T17:46:29.107Z,16.40
2022-09-21T17:48:34.155Z,16.40
2022-09-21T17:50:37.576Z,16.30
2022-09-21T17:53:00.723Z,16.20
2022-09-21T17:55:08.320Z,16.20
2022-09-21T17:57:25.602Z,16.20
2022-09-21T17:59:32.682Z,16.20
2022-09-21T18:01:39.580Z,16.20
2022-09-21T18:03:44.731Z,16.10
2022-09-21T18:05:48.487Z,16.20
2022-09-21T18:07:53.320Z,16.20
2022-09-21T18:09:56.565Z,16.20
2022-09-21T18:12:43.214Z,16.10
2022-09-21T18:14:57.098Z,16.20
2022-09-21T18:17:14.230Z,16.20
2022-09-21T18:19:42.493Z,16.30
2022-09-21T18:21:50.536Z,16.30
2022-09-21T18:24:13.615Z,16.30
2022-09-21T18:26:17.586Z,16.20
2022-09-21T18:28:25.331Z,16.10
2022-09-21T18:30:28.682Z,16.00
2022-09-21T18:32:50.071Z,16.00
2022-09-21T18:35:22.911Z,15.90
2022-09-21T18:37:34.639Z,15.80
2022-09-21T18:39:47.667Z,15.70
2022-09-21T18:42:06.933Z,15.80
2022-09-21T18:44:16.098Z,15.80
2022-09-21T18:46:24.439Z,15.60
2022-09-21T18:48:52.780Z,15.60
2022-09-21T18:51:03.115Z,15.50
2022-09-21T18:53:13.367Z,15.50
2022-09-21T18:55:26.847Z,15.50
2022-09-21T18:57:32.332Z,15.40
2022-09-21T18:59:35.933Z,15.40
2022-09-21T19:01:39.573Z,15.50
2022-09-21T19:03:43.812Z,15.40
2022-09-21T19:05:56.128Z,15.40
2022-09-21T19:08:09.262Z,15.40
2022-09-21T19:10:18.906Z,15.50
2022-09-21T19:12:43.108Z,15.50
2022-09-21T19:14:58.096Z,15.50
2022-09-21T19:17:13.305Z,15.40
2022-09-21T19:19:29.710Z,15.20
2022-09-21T19:21:41.485Z,15.10
2022-09-21T19:24:01.934Z,15.10
2022-09-21T19:26:19.721Z,15.20
2022-09-21T19:28:49.576Z,15.20
2022-09-21T19:31:00.607Z,15.20
2022-09-21T19:33:45.524Z,15.20
2022-09-21T19:35:42.645Z,15.20
2022-09-21T19:37:47.074Z,15.20
2022-09-21T19:39:50.141Z,15.20
2022-09-21T19:42:05.232Z,15.10
2022-09-21T19:44:18.886Z,14.80
2022-09-21T19:46:34.036Z,14.60
2022-09-21T19:48:43.523Z,14.60
2022-09-21T19:50:53.826Z,14.70
2022-09-21T19:53:17.153Z,14.70
2022-09-21T19:55:39.752Z,14.70
2022-09-21T19:58:09.263Z,14.70
2022-09-21T20:00:16.724Z,14.70
2022-09-21T20:02:28.687Z,14.70
2022-09-21T20:04:36.573Z,14.70
2022-09-21T20:06:44.204Z,14.60
2022-09-21T20:08:53.822Z,14.60
2022-09-21T20:11:12.140Z,14.50
2022-09-21T20:13:24.539Z,14.50
2022-09-21T20:15:34.898Z,14.30
2022-09-21T20:17:45.459Z,14.30
2022-09-21T20:19:53.514Z,14.20
2022-09-21T20:22:00.420Z,14.20
2022-09-21T20:24:11.346Z,14.20
2022-09-21T20:26:24.949Z,14.20
2022-09-21T20:28:28.358Z,14.20
2022-09-21T20:30:35.595Z,14.20
2022-09-21T20:32:41.725Z,14.10
2022-09-21T20:34:44.970Z,14.20
2022-09-21T20:36:47.807Z,14.10
2022-09-21T20:38:50.908Z,14.10
2022-09-21T20:40:54.018Z,14.00
2022-09-21T20:42:57.421Z,14.00
2022-09-21T20:45:00.167Z,14.00
2022-09-21T20:47:04.330Z,13.90
2022-09-21T20:49:08.512Z,13.90
2022-09-21T20:51:12.141Z,14.00
2022-09-21T20:53:17.527Z,13.90
2022-09-21T20:55:20.405Z,13.90
2022-09-21T20:57:23.564Z,13.90
2022-09-21T20:59:27.170Z,13.80
2022-09-21T21:01:30.297Z,13.70
2022-09-21T21:03:34.777Z,13.70
2022-09-21T21:05:37.638Z,13.70
2022-09-21T21:07:43.372Z,13.70
2022-09-21T21:09:46.149Z,13.70
2022-09-21T21:11:48.875Z,13.70
2022-09-21T21:13:51.669Z,13.70
2022-09-21T21:15:54.567Z,13.60
2022-09-21T21:17:57.436Z,13.60
2022-09-21T21:20:01.677Z,13.60
2022-09-21T21:22:05.264Z,13.60
2022-09-21T21:24:25.567Z,13.50
2022-09-21T21:26:50.361Z,13.50
2022-09-21T21:28:52.699Z,13.40
2022-09-21T21:30:56.853Z,13.40
2022-09-21T21:33:00.112Z,13.30
2022-09-21T21:35:05.495Z,13.30
2022-09-21T21:37:09.141Z,13.30
2022-09-21T21:39:12.301Z,13.30
2022-09-21T21:41:15.329Z,13.30
2022-09-21T21:43:18.135Z,13.30
2022-09-21T21:45:21.620Z,13.30
2022-09-21T21:47:41.077Z,13.20
2022-09-21T21:49:44.326Z,13.20
2022-09-21T21:51:49.283Z,13.20
2022-09-21T21:53:52.364Z,13.10
2022-09-21T21:56:03.613Z,13.10
2022-09-21T21:58:06.912Z,13.10
2022-09-21T22:00:11.335Z,13.00
2022-09-21T22:02:15.355Z,13.00
2022-09-21T22:04:18.565Z,13.00
2022-09-21T22:06:21.648Z,12.90
2022-09-21T22:08:26.246Z,12.90
2022-09-21T22:10:29.074Z,12.90
2022-09-21T22:12:31.908Z,12.90
2022-09-21T22:14:34.572Z,12.90
2022-09-21T22:16:38.583Z,12.90
2022-09-21T22:18:42.342Z,12.90
2022-09-21T22:20:45.897Z,12.80
2022-09-21T22:22:48.594Z,12.70
2022-09-21T22:24:52.662Z,12.70
2022-09-21T22:26:55.791Z,12.70
2022-09-21T22:29:01.142Z,12.80
2022-09-21T22:31:08.552Z,12.70
2022-09-21T22:33:11.333Z,12.70
2022-09-21T22:35:14.209Z,12.70
2022-09-21T22:37:16.938Z,12.70
2022-09-21T22:39:19.937Z,12.70
2022-09-21T22:41:26.433Z,12.60
2022-09-21T22:43:29.147Z,12.60
2022-09-21T22:45:32.015Z,12.60
2022-09-21T22:47:34.809Z,12.60
2022-09-21T22:49:37.688Z,12.60
2022-09-21T22:51:40.456Z,12.50
2022-09-21T22:53:43.989Z,12.50
2022-09-21T22:55:46.784Z,12.50
2022-09-21T22:57:50.807Z,12.50
2022-09-21T22:59:53.507Z,12.50
2022-09-21T23:01:56.830Z,12.50
2022-09-21T23:04:01.338Z,12.50
2022-09-21T23:06:05.555Z,12.40
2022-09-21T23:08:08.565Z,12.40
2022-09-21T23:10:11.233Z,12.30
2022-09-21T23:12:14.017Z,12.30
2022-09-21T23:14:18.551Z,12.30
2022-09-21T23:16:24.402Z,12.20
2022-09-21T23:18:27.131Z,12.20
2022-09-21T23:20:29.795Z,12.20
2022-09-21T23:22:32.529Z,12.20
2022-09-21T23:24:35.217Z,12.20
2022-09-21T23:26:38.145Z,12.20
2022-09-21T23:28:42.201Z,12.20
2022-09-21T23:30:46.592Z,12.20
2022-09-21T23:32:52.025Z,12.20
2022-09-21T23:34:54.848Z,12.20
2022-09-21T23:36:57.678Z,12.20
2022-09-21T23:39:00.656Z,12.20
2022-09-21T23:41:05.850Z,12.10
2022-09-21T23:43:08.568Z,12.10
2022-09-21T23:45:11.411Z,12.10
2022-09-21T23:47:15.456Z,12.10
2022-09-21T23:49:18.140Z,12.00
2022-09-21T23:51:21.417Z,12.00
2022-09-21T23:53:25.149Z,12.00
2022-09-21T23:55:27.841Z,12.00
2022-09-21T23:57:30.905Z,12.00
2022-09-21T23:59:33.610Z,11.90
